Logrono, Spain
Current Conditions -  °F | °C
As of 12:00 PM on Tuesday 21 Oct 2014 (Local Time) from LELO Reporting Station
Clear Clear  
Wind Chill: 23°   Ceiling: Unl
Heat Index: 23°   Visibility: 6mi
Dew Point: 14°   Wind: 9mph
Humidity: 57%   Direction: 280°W
Pressure: 30.27"   Gusts: NA
Location:  42.47°N, 2.45°W
Report Text: LELO 211000Z 28008KT 260V330 CAVOK 23/14 Q1025
Loading
Personal Weather Stations






























Interactive Weather Map
Tropical Storm Tracking
New forecast layout! Learn more

10-Day Weather Forecast

Advertisements
Track Severe Weather on mobile